Pelly, Canada
Current Conditions -  °F | °C
As of 4:00 AM on Thursday 23 Oct 2014 (Local Time) from CYQV Reporting Station
Overcast Overcast  
Wind Chill: 44°   Ceiling: 1300
Heat Index: 48°   Visibility: 9mi
Dew Point: 45°   Wind: 9mph
Humidity: 87%   Direction: 260°W
Pressure: 29.73"   Gusts: NA
Location:  51.87°N, 101.92°W
Report Text: CYQV 231000Z AUTO 26008KT 9SM OVC013 09/07 A2973 RMK SLP081
Loading
Personal Weather Stations






























Interactive Weather Map
Tropical Storm Tracking
New forecast layout! Learn more

10-Day Weather Forecast

Advertisements
Track Severe Weather on mobile